Hlavní strana
METAR-TAF:

METAR-TAF

Letiště :

Kufra, Libye

zeměpisná šířka: 24-13N, zeměpisná délka: 023-18E, výška: 417 m

METAR: chybějící

Čas: 09:01 (07:01 UTC)

Předpověď počasí

Zpráva byla vytvořena před 26 hodinami a 1 minutami, v 05:00 UTC
Předpověď platná od 23 v 06 UTC do 24 v 06 UTC
Severovýchodní vítr 8 kt
Viditelnost 10 km a více
Žádná oblačnost pod 1500 m, nevyskytují se cumulonimby.
Změna
od 23 v 12 UTC do 23 v 14 UTC
vítr z různých směrů 2 kt

TAF: HLKF 230500Z 2306/2406 04008KT CAVOK BECMG 2312/2314 VRB02KT

Stav a předpovědi počasí z více než 4 000 letišť (zprávy METAR a TAF).

Červené a žluté tečky na mapě představují dostupné meteorologické stanice.

Když kurzor umístíte na tečku, zobrazí se název stanice.

Pak kliknutím zobrazíte stav a předpověď počasí.

Chcete-li změnit mapu, kliknutím na zelené tlačítko se znaménkem +mapu přiblížíte, kliknutím na zelené tlačítko se znaménkem – mapu oddálíte a kliknutím na zelené šipky přejdete na sousední mapy.


METAR-TAF: